sensor_id;sensor_type;location;lat;lon;timestamp;P1;durP1;ratioP1;P2;durP2;ratioP2
45540;SDS011;31265;49.680;8.608;2022-12-24T00:00:03;5.05;;;1.08;;
45540;SDS011;31265;49.680;8.608;2022-12-24T00:02:33;2.25;;;0.73;;
45540;SDS011;31265;49.680;8.608;2022-12-24T00:05:01;3.42;;;0.70;;
45540;SDS011;31265;49.680;8.608;2022-12-24T00:07:32;5.45;;;0.93;;
45540;SDS011;31265;49.680;8.608;2022-12-24T00:10:01;1.88;;;0.60;;
45540;SDS011;31265;49.680;8.608;2022-12-24T00:12:31;2.85;;;0.98;;
45540;SDS011;31265;49.680;8.608;2022-12-24T00:14:59;1.85;;;0.77;;
45540;SDS011;31265;49.680;8.608;2022-12-24T00:17:28;8.77;;;1.30;;
45540;SDS011;31265;49.680;8.608;2022-12-24T00:19:56;3.58;;;1.05;;
45540;SDS011;31265;49.680;8.608;2022-12-24T00:22:25;5.45;;;1.25;;
45540;SDS011;31265;49.680;8.608;2022-12-24T00:24:55;6.97;;;1.13;;
45540;SDS011;31265;49.680;8.608;2022-12-24T00:27:24;1.70;;;0.63;;
45540;SDS011;31265;49.680;8.608;2022-12-24T00:29:54;1.73;;;1.02;;
45540;SDS011;31265;49.680;8.608;2022-12-24T00:32:24;4.07;;;1.23;;
45540;SDS011;31265;49.680;8.608;2022-12-24T00:34:52;1.90;;;0.43;;
45540;SDS011;31265;49.680;8.608;2022-12-24T00:37:20;1.55;;;0.52;;
45540;SDS011;31265;49.680;8.608;2022-12-24T00:39:49;4.22;;;0.70;;
45540;SDS011;31265;49.680;8.608;2022-12-24T00:42:17;6.68;;;0.85;;
45540;SDS011;31265;49.680;8.608;2022-12-24T00:44:46;2.25;;;0.80;;
45540;SDS011;31265;49.680;8.608;2022-12-24T00:47:17;3.85;;;0.95;;
45540;SDS011;31265;49.680;8.608;2022-12-24T00:49:46;7.57;;;1.20;;
45540;SDS011;31265;49.680;8.608;2022-12-24T00:52:15;1.85;;;0.68;;
45540;SDS011;31265;49.680;8.608;2022-12-24T00:54:44;1.58;;;0.57;;
45540;SDS011;31265;49.680;8.608;2022-12-24T00:57:13;6.13;;;0.80;;
45540;SDS011;31265;49.680;8.608;2022-12-24T00:59:43;2.50;;;0.73;;
45540;SDS011;31265;49.680;8.608;2022-12-24T01:02:12;5.47;;;0.85;;
45540;SDS011;31265;49.680;8.608;2022-12-24T01:04:42;1.13;;;0.93;;
45540;SDS011;31265;49.680;8.608;2022-12-24T01:07:28;3.67;;;0.75;;
45540;SDS011;31265;49.680;8.608;2022-12-24T01:09:57;7.13;;;0.70;;
45540;SDS011;31265;49.680;8.608;2022-12-24T01:14:55;6.93;;;1.00;;
45540;SDS011;31265;49.680;8.608;2022-12-24T01:17:24;5.27;;;0.93;;
45540;SDS011;31265;49.680;8.608;2022-12-24T01:19:54;7.53;;;1.23;;
45540;SDS011;31265;49.680;8.608;2022-12-24T01:22:22;1.35;;;0.40;;
45540;SDS011;31265;49.680;8.608;2022-12-24T01:24:51;4.80;;;1.13;;
45540;SDS011;31265;49.680;8.608;2022-12-24T01:27:19;4.60;;;0.98;;
45540;SDS011;31265;49.680;8.608;2022-12-24T01:29:47;2.83;;;0.70;;
45540;SDS011;31265;49.680;8.608;2022-12-24T01:32:18;6.00;;;0.70;;
45540;SDS011;31265;49.680;8.608;2022-12-24T01:34:47;3.58;;;0.50;;
45540;SDS011;31265;49.680;8.608;2022-12-24T01:37:19;6.90;;;0.95;;
45540;SDS011;31265;49.680;8.608;2022-12-24T01:39:48;6.45;;;0.60;;
45540;SDS011;31265;49.680;8.608;2022-12-24T01:48:12;1.95;;;0.65;;
45540;SDS011;31265;49.680;8.608;2022-12-24T01:50:44;5.20;;;1.40;;
45540;SDS011;31265;49.680;8.608;2022-12-24T01:53:14;4.10;;;0.80;;
45540;SDS011;31265;49.680;8.608;2022-12-24T01:55:44;5.28;;;0.85;;
45540;SDS011;31265;49.680;8.608;2022-12-24T01:58:14;2.83;;;0.65;;
45540;SDS011;31265;49.680;8.608;2022-12-24T02:00:45;5.50;;;0.63;;
45540;SDS011;31265;49.680;8.608;2022-12-24T02:03:14;5.85;;;1.25;;
45540;SDS011;31265;49.680;8.608;2022-12-24T02:05:45;3.60;;;1.30;;
45540;SDS011;31265;49.680;8.608;2022-12-24T02:08:16;8.15;;;0.75;;
45540;SDS011;31265;49.680;8.608;2022-12-24T02:10:46;2.45;;;0.55;;
45540;SDS011;31265;49.680;8.608;2022-12-24T02:13:16;2.05;;;0.43;;
45540;SDS011;31265;49.680;8.608;2022-12-24T02:15:53;2.22;;;0.55;;
45540;SDS011;31265;49.680;8.608;2022-12-24T02:18:33;2.58;;;0.85;;
45540;SDS011;31265;49.680;8.608;2022-12-24T02:27:28;8.15;;;1.10;;
45540;SDS011;31265;49.680;8.608;2022-12-24T02:30:18;3.53;;;0.47;;
45540;SDS011;31265;49.680;8.608;2022-12-24T02:32:57;7.03;;;0.85;;
45540;SDS011;31265;49.680;8.608;2022-12-24T02:35:35;3.95;;;0.95;;
45540;SDS011;31265;49.680;8.608;2022-12-24T02:38:12;2.83;;;0.68;;
45540;SDS011;31265;49.680;8.608;2022-12-24T02:40:45;1.58;;;0.30;;
45540;SDS011;31265;49.680;8.608;2022-12-24T02:43:21;6.25;;;1.02;;
45540;SDS011;31265;49.680;8.608;2022-12-24T02:45:55;2.92;;;0.70;;
45540;SDS011;31265;49.680;8.608;2022-12-24T02:48:26;2.92;;;0.77;;
45540;SDS011;31265;49.680;8.608;2022-12-24T02:51:00;3.95;;;1.08;;
45540;SDS011;31265;49.680;8.608;2022-12-24T02:53:31;7.05;;;1.38;;
45540;SDS011;31265;49.680;8.608;2022-12-24T02:56:11;5.05;;;0.90;;
45540;SDS011;31265;49.680;8.608;2022-12-24T02:58:56;2.90;;;0.50;;
45540;SDS011;31265;49.680;8.608;2022-12-24T03:01:40;11.43;;;1.80;;
45540;SDS011;31265;49.680;8.608;2022-12-24T03:04:20;2.20;;;0.85;;
45540;SDS011;31265;49.680;8.608;2022-12-24T03:07:08;5.63;;;0.63;;
45540;SDS011;31265;49.680;8.608;2022-12-24T03:09:49;4.32;;;1.48;;
45540;SDS011;31265;49.680;8.608;2022-12-24T03:12:27;5.80;;;1.30;;
45540;SDS011;31265;49.680;8.608;2022-12-24T03:15:01;2.35;;;0.50;;
45540;SDS011;31265;49.680;8.608;2022-12-24T03:17:37;5.60;;;0.70;;
45540;SDS011;31265;49.680;8.608;2022-12-24T03:20:09;3.92;;;0.52;;
45540;SDS011;31265;49.680;8.608;2022-12-24T03:22:40;2.58;;;1.17;;
45540;SDS011;31265;49.680;8.608;2022-12-24T03:25:10;6.03;;;0.77;;
45540;SDS011;31265;49.680;8.608;2022-12-24T03:27:39;4.28;;;0.82;;
45540;SDS011;31265;49.680;8.608;2022-12-24T03:30:09;2.83;;;1.00;;
45540;SDS011;31265;49.680;8.608;2022-12-24T03:32:41;3.50;;;0.60;;
45540;SDS011;31265;49.680;8.608;2022-12-24T03:35:13;6.63;;;0.80;;
45540;SDS011;31265;49.680;8.608;2022-12-24T03:37:44;0.68;;;0.30;;
45540;SDS011;31265;49.680;8.608;2022-12-24T03:40:12;3.70;;;0.93;;
45540;SDS011;31265;49.680;8.608;2022-12-24T03:42:41;1.95;;;0.50;;
45540;SDS011;31265;49.680;8.608;2022-12-24T03:45:10;3.92;;;0.40;;
45540;SDS011;31265;49.680;8.608;2022-12-24T03:47:38;2.72;;;0.60;;
45540;SDS011;31265;49.680;8.608;2022-12-24T03:50:08;5.90;;;0.95;;
45540;SDS011;31265;49.680;8.608;2022-12-24T03:52:44;3.67;;;0.57;;
45540;SDS011;31265;49.680;8.608;2022-12-24T03:55:13;3.25;;;1.02;;
45540;SDS011;31265;49.680;8.608;2022-12-24T03:57:43;2.35;;;0.50;;
45540;SDS011;31265;49.680;8.608;2022-12-24T04:00:12;2.63;;;0.55;;
45540;SDS011;31265;49.680;8.608;2022-12-24T04:02:45;3.20;;;0.80;;
45540;SDS011;31265;49.680;8.608;2022-12-24T04:05:17;1.03;;;0.40;;
45540;SDS011;31265;49.680;8.608;2022-12-24T04:07:46;9.88;;;0.98;;
45540;SDS011;31265;49.680;8.608;2022-12-24T04:10:15;1.75;;;0.40;;
45540;SDS011;31265;49.680;8.608;2022-12-24T04:12:43;4.60;;;1.05;;
45540;SDS011;31265;49.680;8.608;2022-12-24T04:15:12;3.05;;;0.55;;
45540;SDS011;31265;49.680;8.608;2022-12-24T04:17:40;9.05;;;1.92;;
45540;SDS011;31265;49.680;8.608;2022-12-24T04:20:09;4.72;;;0.85;;
45540;SDS011;31265;49.680;8.608;2022-12-24T04:25:09;8.32;;;1.27;;
45540;SDS011;31265;49.680;8.608;2022-12-24T04:27:37;9.23;;;1.42;;
45540;SDS011;31265;49.680;8.608;2022-12-24T04:30:06;2.97;;;0.90;;
45540;SDS011;31265;49.680;8.608;2022-12-24T04:32:37;5.78;;;1.17;;
45540;SDS011;31265;49.680;8.608;2022-12-24T04:35:05;3.50;;;0.70;;
45540;SDS011;31265;49.680;8.608;2022-12-24T04:37:34;2.50;;;0.52;;
45540;SDS011;31265;49.680;8.608;2022-12-24T04:40:05;2.65;;;1.15;;
45540;SDS011;31265;49.680;8.608;2022-12-24T04:42:35;2.75;;;0.35;;
45540;SDS011;31265;49.680;8.608;2022-12-24T04:45:03;8.20;;;1.05;;
45540;SDS011;31265;49.680;8.608;2022-12-24T04:47:32;3.67;;;1.00;;
45540;SDS011;31265;49.680;8.608;2022-12-24T04:50:01;8.98;;;1.83;;
45540;SDS011;31265;49.680;8.608;2022-12-24T04:52:29;3.22;;;0.80;;
45540;SDS011;31265;49.680;8.608;2022-12-24T04:54:58;11.40;;;1.65;;
45540;SDS011;31265;49.680;8.608;2022-12-24T04:57:27;4.88;;;0.98;;
45540;SDS011;31265;49.680;8.608;2022-12-24T04:59:58;2.25;;;0.65;;
45540;SDS011;31265;49.680;8.608;2022-12-24T05:02:27;5.57;;;0.80;;
45540;SDS011;31265;49.680;8.608;2022-12-24T05:05:00;4.47;;;1.45;;
45540;SDS011;31265;49.680;8.608;2022-12-24T05:07:29;2.37;;;0.53;;
45540;SDS011;31265;49.680;8.608;2022-12-24T05:09:59;4.05;;;0.80;;
45540;SDS011;31265;49.680;8.608;2022-12-24T05:12:36;7.90;;;1.00;;
45540;SDS011;31265;49.680;8.608;2022-12-24T05:15:04;6.50;;;0.88;;
45540;SDS011;31265;49.680;8.608;2022-12-24T05:17:33;1.70;;;0.55;;
45540;SDS011;31265;49.680;8.608;2022-12-24T05:20:02;7.00;;;1.10;;
45540;SDS011;31265;49.680;8.608;2022-12-24T05:22:33;7.18;;;1.30;;
45540;SDS011;31265;49.680;8.608;2022-12-24T05:25:21;7.97;;;1.52;;
45540;SDS011;31265;49.680;8.608;2022-12-24T05:28:08;10.07;;;1.30;;
45540;SDS011;31265;49.680;8.608;2022-12-24T05:30:37;15.13;;;1.27;;
45540;SDS011;31265;49.680;8.608;2022-12-24T05:33:07;5.30;;;0.93;;
45540;SDS011;31265;49.680;8.608;2022-12-24T05:35:35;3.00;;;0.63;;
45540;SDS011;31265;49.680;8.608;2022-12-24T05:38:04;11.05;;;1.30;;
45540;SDS011;31265;49.680;8.608;2022-12-24T05:40:34;7.97;;;1.13;;
45540;SDS011;31265;49.680;8.608;2022-12-24T05:43:03;9.10;;;1.25;;
45540;SDS011;31265;49.680;8.608;2022-12-24T05:45:33;5.95;;;1.40;;
45540;SDS011;31265;49.680;8.608;2022-12-24T05:48:02;10.95;;;1.67;;
45540;SDS011;31265;49.680;8.608;2022-12-24T05:50:32;6.53;;;1.05;;
45540;SDS011;31265;49.680;8.608;2022-12-24T05:53:04;5.10;;;1.00;;
45540;SDS011;31265;49.680;8.608;2022-12-24T05:55:32;6.60;;;1.15;;
45540;SDS011;31265;49.680;8.608;2022-12-24T05:58:01;6.13;;;1.10;;
45540;SDS011;31265;49.680;8.608;2022-12-24T06:00:33;5.38;;;0.90;;
45540;SDS011;31265;49.680;8.608;2022-12-24T06:03:01;5.38;;;0.60;;
45540;SDS011;31265;49.680;8.608;2022-12-24T06:05:29;8.32;;;1.27;;
45540;SDS011;31265;49.680;8.608;2022-12-24T06:08:03;5.43;;;0.88;;
45540;SDS011;31265;49.680;8.608;2022-12-24T06:10:32;5.47;;;1.10;;
45540;SDS011;31265;49.680;8.608;2022-12-24T06:13:00;7.68;;;1.50;;
45540;SDS011;31265;49.680;8.608;2022-12-24T06:15:28;8.38;;;0.73;;
45540;SDS011;31265;49.680;8.608;2022-12-24T06:18:00;1.45;;;0.40;;
45540;SDS011;31265;49.680;8.608;2022-12-24T06:22:58;3.13;;;0.73;;
45540;SDS011;31265;49.680;8.608;2022-12-24T06:25:28;6.25;;;1.08;;
45540;SDS011;31265;49.680;8.608;2022-12-24T06:27:56;3.40;;;0.57;;
45540;SDS011;31265;49.680;8.608;2022-12-24T06:30:25;8.43;;;0.75;;
45540;SDS011;31265;49.680;8.608;2022-12-24T06:32:54;2.88;;;0.63;;
45540;SDS011;31265;49.680;8.608;2022-12-24T06:35:24;4.25;;;1.08;;
45540;SDS011;31265;49.680;8.608;2022-12-24T06:37:53;3.97;;;0.82;;
45540;SDS011;31265;49.680;8.608;2022-12-24T06:40:21;4.70;;;1.05;;
45540;SDS011;31265;49.680;8.608;2022-12-24T06:42:50;2.40;;;0.70;;
45540;SDS011;31265;49.680;8.608;2022-12-24T06:45:18;4.93;;;0.98;;
45540;SDS011;31265;49.680;8.608;2022-12-24T06:47:46;5.50;;;0.82;;
45540;SDS011;31265;49.680;8.608;2022-12-24T06:50:17;6.18;;;0.85;;
45540;SDS011;31265;49.680;8.608;2022-12-24T06:52:47;19.40;;;1.60;;
45540;SDS011;31265;49.680;8.608;2022-12-24T06:55:15;4.68;;;1.00;;
45540;SDS011;31265;49.680;8.608;2022-12-24T06:57:45;5.15;;;1.38;;
45540;SDS011;31265;49.680;8.608;2022-12-24T07:00:15;4.50;;;0.85;;
45540;SDS011;31265;49.680;8.608;2022-12-24T07:05:12;6.72;;;1.92;;
45540;SDS011;31265;49.680;8.608;2022-12-24T07:07:44;4.72;;;1.23;;
45540;SDS011;31265;49.680;8.608;2022-12-24T07:10:15;11.20;;;1.83;;
45540;SDS011;31265;49.680;8.608;2022-12-24T07:12:45;2.40;;;0.73;;
45540;SDS011;31265;49.680;8.608;2022-12-24T07:15:15;7.60;;;1.83;;
45540;SDS011;31265;49.680;8.608;2022-12-24T07:17:44;7.30;;;1.05;;
45540;SDS011;31265;49.680;8.608;2022-12-24T07:20:15;9.10;;;1.40;;
45540;SDS011;31265;49.680;8.608;2022-12-24T07:22:43;5.28;;;1.33;;
45540;SDS011;31265;49.680;8.608;2022-12-24T07:25:14;7.10;;;1.63;;
45540;SDS011;31265;49.680;8.608;2022-12-24T07:27:43;7.45;;;1.60;;
45540;SDS011;31265;49.680;8.608;2022-12-24T07:30:12;4.35;;;1.45;;
45540;SDS011;31265;49.680;8.608;2022-12-24T07:32:42;9.27;;;2.55;;
45540;SDS011;31265;49.680;8.608;2022-12-24T07:35:10;3.30;;;1.33;;
45540;SDS011;31265;49.680;8.608;2022-12-24T07:37:39;4.95;;;1.55;;
45540;SDS011;31265;49.680;8.608;2022-12-24T07:40:09;7.40;;;1.52;;
45540;SDS011;31265;49.680;8.608;2022-12-24T07:42:39;8.40;;;1.73;;
45540;SDS011;31265;49.680;8.608;2022-12-24T07:45:10;6.72;;;1.25;;
45540;SDS011;31265;49.680;8.608;2022-12-24T07:47:41;8.95;;;1.63;;
45540;SDS011;31265;49.680;8.608;2022-12-24T07:50:10;4.68;;;1.30;;
45540;SDS011;31265;49.680;8.608;2022-12-24T07:52:40;4.70;;;1.65;;
45540;SDS011;31265;49.680;8.608;2022-12-24T07:55:09;7.88;;;1.80;;
45540;SDS011;31265;49.680;8.608;2022-12-24T07:57:40;8.32;;;3.28;;
45540;SDS011;31265;49.680;8.608;2022-12-24T08:02:38;6.18;;;1.50;;
45540;SDS011;31265;49.680;8.608;2022-12-24T08:05:07;4.13;;;1.25;;
45540;SDS011;31265;49.680;8.608;2022-12-24T08:07:36;10.77;;;2.80;;
45540;SDS011;31265;49.680;8.608;2022-12-24T08:10:05;6.78;;;1.00;;
45540;SDS011;31265;49.680;8.608;2022-12-24T08:12:34;7.00;;;1.27;;
45540;SDS011;31265;49.680;8.608;2022-12-24T08:15:06;2.58;;;1.15;;
45540;SDS011;31265;49.680;8.608;2022-12-24T08:17:35;6.53;;;1.35;;
45540;SDS011;31265;49.680;8.608;2022-12-24T08:20:04;6.05;;;1.08;;
45540;SDS011;31265;49.680;8.608;2022-12-24T08:22:35;3.72;;;1.05;;
45540;SDS011;31265;49.680;8.608;2022-12-24T08:25:04;4.87;;;1.13;;
45540;SDS011;31265;49.680;8.608;2022-12-24T08:27:32;8.80;;;1.50;;
45540;SDS011;31265;49.680;8.608;2022-12-24T08:30:01;11.15;;;1.40;;
45540;SDS011;31265;49.680;8.608;2022-12-24T08:32:33;5.72;;;1.90;;
45540;SDS011;31265;49.680;8.608;2022-12-24T08:35:02;4.75;;;2.65;;
45540;SDS011;31265;49.680;8.608;2022-12-24T08:37:31;3.75;;;1.48;;
45540;SDS011;31265;49.680;8.608;2022-12-24T08:39:59;6.57;;;1.58;;
45540;SDS011;31265;49.680;8.608;2022-12-24T08:42:30;11.20;;;1.60;;
45540;SDS011;31265;49.680;8.608;2022-12-24T08:45:00;8.32;;;1.75;;
45540;SDS011;31265;49.680;8.608;2022-12-24T08:47:30;5.40;;;1.25;;
45540;SDS011;31265;49.680;8.608;2022-12-24T08:50:01;8.57;;;1.95;;
45540;SDS011;31265;49.680;8.608;2022-12-24T08:52:30;17.67;;;2.17;;
45540;SDS011;31265;49.680;8.608;2022-12-24T08:54:58;6.35;;;1.77;;
45540;SDS011;31265;49.680;8.608;2022-12-24T08:57:28;5.50;;;1.85;;
45540;SDS011;31265;49.680;8.608;2022-12-24T08:59:56;11.63;;;1.65;;
45540;SDS011;31265;49.680;8.608;2022-12-24T09:02:24;12.57;;;1.80;;
45540;SDS011;31265;49.680;8.608;2022-12-24T09:04:55;16.45;;;3.22;;
45540;SDS011;31265;49.680;8.608;2022-12-24T09:07:24;6.50;;;1.65;;
45540;SDS011;31265;49.680;8.608;2022-12-24T09:12:21;8.05;;;1.45;;
45540;SDS011;31265;49.680;8.608;2022-12-24T09:14:50;19.85;;;4.88;;
45540;SDS011;31265;49.680;8.608;2022-12-24T09:17:28;8.00;;;2.87;;
45540;SDS011;31265;49.680;8.608;2022-12-24T09:19:57;9.57;;;1.50;;
45540;SDS011;31265;49.680;8.608;2022-12-24T09:22:29;10.93;;;1.93;;
45540;SDS011;31265;49.680;8.608;2022-12-24T09:24:58;6.47;;;0.95;;
45540;SDS011;31265;49.680;8.608;2022-12-24T09:27:26;5.28;;;1.13;;
45540;SDS011;31265;49.680;8.608;2022-12-24T09:29:57;5.38;;;1.65;;
45540;SDS011;31265;49.680;8.608;2022-12-24T09:32:26;7.40;;;1.58;;
45540;SDS011;31265;49.680;8.608;2022-12-24T09:34:55;5.90;;;1.00;;
45540;SDS011;31265;49.680;8.608;2022-12-24T09:37:23;8.65;;;1.98;;
45540;SDS011;31265;49.680;8.608;2022-12-24T09:39:54;6.30;;;1.67;;
45540;SDS011;31265;49.680;8.608;2022-12-24T09:42:27;3.35;;;1.05;;
45540;SDS011;31265;49.680;8.608;2022-12-24T09:45:06;8.75;;;1.35;;
45540;SDS011;31265;49.680;8.608;2022-12-24T09:47:40;11.95;;;1.58;;
45540;SDS011;31265;49.680;8.608;2022-12-24T09:50:19;10.07;;;1.90;;
45540;SDS011;31265;49.680;8.608;2022-12-24T09:52:53;6.10;;;1.25;;
45540;SDS011;31265;49.680;8.608;2022-12-24T09:55:25;11.82;;;1.30;;
45540;SDS011;31265;49.680;8.608;2022-12-24T09:57:56;8.43;;;1.65;;
45540;SDS011;31265;49.680;8.608;2022-12-24T10:00:28;5.32;;;1.75;;
45540;SDS011;31265;49.680;8.608;2022-12-24T10:03:00;9.52;;;1.98;;
45540;SDS011;31265;49.680;8.608;2022-12-24T10:05:31;4.68;;;1.05;;
45540;SDS011;31265;49.680;8.608;2022-12-24T10:10:45;10.55;;;0.90;;
45540;SDS011;31265;49.680;8.608;2022-12-24T10:13:21;13.80;;;1.65;;
45540;SDS011;31265;49.680;8.608;2022-12-24T10:16:07;12.82;;;2.53;;
45540;SDS011;31265;49.680;8.608;2022-12-24T10:18:48;10.82;;;2.33;;
45540;SDS011;31265;49.680;8.608;2022-12-24T10:21:26;8.70;;;1.30;;
45540;SDS011;31265;49.680;8.608;2022-12-24T10:24:09;8.38;;;1.98;;
45540;SDS011;31265;49.680;8.608;2022-12-24T10:26:45;4.50;;;1.52;;
45540;SDS011;31265;49.680;8.608;2022-12-24T10:32:15;12.85;;;2.47;;
45540;SDS011;31265;49.680;8.608;2022-12-24T10:34:50;11.43;;;1.98;;
45540;SDS011;31265;49.680;8.608;2022-12-24T10:37:28;7.10;;;1.95;;
45540;SDS011;31265;49.680;8.608;2022-12-24T10:39:57;9.45;;;2.33;;
45540;SDS011;31265;49.680;8.608;2022-12-24T10:42:30;6.57;;;1.73;;
45540;SDS011;31265;49.680;8.608;2022-12-24T10:45:13;5.90;;;1.33;;
45540;SDS011;31265;49.680;8.608;2022-12-24T10:47:44;10.68;;;1.80;;
45540;SDS011;31265;49.680;8.608;2022-12-24T10:50:18;9.13;;;2.65;;
45540;SDS011;31265;49.680;8.608;2022-12-24T10:52:57;20.83;;;2.60;;
45540;SDS011;31265;49.680;8.608;2022-12-24T10:55:32;9.00;;;1.38;;
45540;SDS011;31265;49.680;8.608;2022-12-24T10:58:03;8.07;;;2.50;;
45540;SDS011;31265;49.680;8.608;2022-12-24T11:00:34;12.18;;;1.65;;
45540;SDS011;31265;49.680;8.608;2022-12-24T11:03:05;7.80;;;1.60;;
45540;SDS011;31265;49.680;8.608;2022-12-24T11:05:58;13.65;;;1.58;;
45540;SDS011;31265;49.680;8.608;2022-12-24T11:08:34;11.82;;;1.75;;
45540;SDS011;31265;49.680;8.608;2022-12-24T11:11:04;4.47;;;1.35;;
45540;SDS011;31265;49.680;8.608;2022-12-24T11:13:37;11.05;;;1.90;;
45540;SDS011;31265;49.680;8.608;2022-12-24T11:16:09;8.68;;;1.70;;
45540;SDS011;31265;49.680;8.608;2022-12-24T11:18:47;7.82;;;2.03;;
45540;SDS011;31265;49.680;8.608;2022-12-24T11:21:19;13.93;;;2.58;;
45540;SDS011;31265;49.680;8.608;2022-12-24T11:23:50;7.97;;;1.42;;
45540;SDS011;31265;49.680;8.608;2022-12-24T11:26:24;14.68;;;3.15;;
45540;SDS011;31265;49.680;8.608;2022-12-24T11:29:10;14.60;;;2.45;;
45540;SDS011;31265;49.680;8.608;2022-12-24T11:31:46;6.07;;;2.03;;
45540;SDS011;31265;49.680;8.608;2022-12-24T11:34:21;11.15;;;3.50;;
45540;SDS011;31265;49.680;8.608;2022-12-24T11:37:06;12.43;;;2.03;;
45540;SDS011;31265;49.680;8.608;2022-12-24T11:39:42;9.45;;;1.17;;
45540;SDS011;31265;49.680;8.608;2022-12-24T11:42:24;7.72;;;1.70;;
45540;SDS011;31265;49.680;8.608;2022-12-24T11:44:56;15.07;;;2.03;;
45540;SDS011;31265;49.680;8.608;2022-12-24T11:47:31;7.07;;;2.55;;
45540;SDS011;31265;49.680;8.608;2022-12-24T11:50:18;13.75;;;2.17;;
45540;SDS011;31265;49.680;8.608;2022-12-24T11:52:51;8.10;;;1.58;;
45540;SDS011;31265;49.680;8.608;2022-12-24T11:55:37;3.75;;;1.25;;
45540;SDS011;31265;49.680;8.608;2022-12-24T11:58:14;9.60;;;1.17;;
45540;SDS011;31265;49.680;8.608;2022-12-24T12:00:50;6.13;;;0.93;;
45540;SDS011;31265;49.680;8.608;2022-12-24T12:03:26;12.23;;;1.67;;
45540;SDS011;31265;49.680;8.608;2022-12-24T12:06:00;11.85;;;2.67;;
45540;SDS011;31265;49.680;8.608;2022-12-24T12:08:47;8.50;;;1.42;;
45540;SDS011;31265;49.680;8.608;2022-12-24T12:11:22;13.90;;;2.53;;
45540;SDS011;31265;49.680;8.608;2022-12-24T12:13:53;8.35;;;1.67;;
45540;SDS011;31265;49.680;8.608;2022-12-24T12:16:27;11.82;;;2.53;;
45540;SDS011;31265;49.680;8.608;2022-12-24T12:19:20;7.28;;;1.83;;
45540;SDS011;31265;49.680;8.608;2022-12-24T12:21:54;7.03;;;1.30;;
45540;SDS011;31265;49.680;8.608;2022-12-24T12:24:25;7.35;;;1.58;;
45540;SDS011;31265;49.680;8.608;2022-12-24T12:27:02;11.90;;;2.33;;
45540;SDS011;31265;49.680;8.608;2022-12-24T12:29:35;7.45;;;1.08;;
45540;SDS011;31265;49.680;8.608;2022-12-24T12:32:12;11.30;;;2.30;;
45540;SDS011;31265;49.680;8.608;2022-12-24T12:34:57;5.85;;;1.13;;
45540;SDS011;31265;49.680;8.608;2022-12-24T12:37:32;4.93;;;1.52;;
45540;SDS011;31265;49.680;8.608;2022-12-24T12:40:05;14.85;;;2.90;;
45540;SDS011;31265;49.680;8.608;2022-12-24T12:42:43;15.07;;;2.88;;
45540;SDS011;31265;49.680;8.608;2022-12-24T12:45:31;9.85;;;1.33;;
45540;SDS011;31265;49.680;8.608;2022-12-24T12:51:01;6.15;;;1.50;;
45540;SDS011;31265;49.680;8.608;2022-12-24T12:53:42;5.55;;;1.60;;
45540;SDS011;31265;49.680;8.608;2022-12-24T12:56:29;8.93;;;1.45;;
45540;SDS011;31265;49.680;8.608;2022-12-24T12:59:00;7.43;;;1.90;;
45540;SDS011;31265;49.680;8.608;2022-12-24T13:01:39;19.60;;;1.77;;
45540;SDS011;31265;49.680;8.608;2022-12-24T13:04:23;14.73;;;2.08;;
45540;SDS011;31265;49.680;8.608;2022-12-24T13:07:16;9.15;;;2.35;;
45540;SDS011;31265;49.680;8.608;2022-12-24T13:10:15;3.58;;;1.17;;
45540;SDS011;31265;49.680;8.608;2022-12-24T13:13:06;5.18;;;1.50;;
45540;SDS011;31265;49.680;8.608;2022-12-24T13:16:00;6.03;;;1.45;;
45540;SDS011;31265;49.680;8.608;2022-12-24T13:18:43;6.70;;;1.25;;
45540;SDS011;31265;49.680;8.608;2022-12-24T13:21:23;7.50;;;1.58;;
45540;SDS011;31265;49.680;8.608;2022-12-24T13:24:03;4.30;;;1.02;;
45540;SDS011;31265;49.680;8.608;2022-12-24T13:26:34;10.57;;;2.47;;
45540;SDS011;31265;49.680;8.608;2022-12-24T13:32:09;5.80;;;1.92;;
45540;SDS011;31265;49.680;8.608;2022-12-24T13:35:26;6.03;;;1.63;;
45540;SDS011;31265;49.680;8.608;2022-12-24T13:38:30;12.77;;;1.98;;
45540;SDS011;31265;49.680;8.608;2022-12-24T13:44:16;5.55;;;1.88;;
45540;SDS011;31265;49.680;8.608;2022-12-24T13:46:53;5.40;;;1.55;;
45540;SDS011;31265;49.680;8.608;2022-12-24T13:49:31;23.88;;;7.65;;
45540;SDS011;31265;49.680;8.608;2022-12-24T13:52:14;13.27;;;2.60;;
45540;SDS011;31265;49.680;8.608;2022-12-24T14:00:30;10.02;;;2.30;;
45540;SDS011;31265;49.680;8.608;2022-12-24T14:03:04;8.95;;;1.48;;
45540;SDS011;31265;49.680;8.608;2022-12-24T14:05:44;5.53;;;2.17;;
45540;SDS011;31265;49.680;8.608;2022-12-24T14:08:15;9.15;;;1.38;;
45540;SDS011;31265;49.680;8.608;2022-12-24T14:11:01;6.00;;;1.63;;
45540;SDS011;31265;49.680;8.608;2022-12-24T14:13:53;6.40;;;1.48;;
45540;SDS011;31265;49.680;8.608;2022-12-24T14:16:40;13.65;;;1.92;;
45540;SDS011;31265;49.680;8.608;2022-12-24T14:19:11;7.47;;;1.42;;
45540;SDS011;31265;49.680;8.608;2022-12-24T14:21:42;10.40;;;2.13;;
45540;SDS011;31265;49.680;8.608;2022-12-24T14:24:19;11.93;;;1.63;;
45540;SDS011;31265;49.680;8.608;2022-12-24T14:26:53;5.88;;;0.88;;
45540;SDS011;31265;49.680;8.608;2022-12-24T14:29:26;12.55;;;1.55;;
45540;SDS011;31265;49.680;8.608;2022-12-24T14:31:58;11.55;;;1.20;;
45540;SDS011;31265;49.680;8.608;2022-12-24T14:34:30;8.30;;;1.42;;
45540;SDS011;31265;49.680;8.608;2022-12-24T14:37:00;5.90;;;1.88;;
45540;SDS011;31265;49.680;8.608;2022-12-24T14:39:32;3.70;;;0.90;;
45540;SDS011;31265;49.680;8.608;2022-12-24T14:42:08;4.95;;;1.38;;
45540;SDS011;31265;49.680;8.608;2022-12-24T14:44:52;15.10;;;1.95;;
45540;SDS011;31265;49.680;8.608;2022-12-24T14:47:29;9.77;;;2.00;;
45540;SDS011;31265;49.680;8.608;2022-12-24T14:50:22;6.32;;;1.88;;
45540;SDS011;31265;49.680;8.608;2022-12-24T14:53:05;10.40;;;1.77;;
45540;SDS011;31265;49.680;8.608;2022-12-24T14:55:45;9.68;;;3.13;;
45540;SDS011;31265;49.680;8.608;2022-12-24T14:58:18;7.43;;;1.92;;
45540;SDS011;31265;49.680;8.608;2022-12-24T15:00:52;14.20;;;2.15;;
45540;SDS011;31265;49.680;8.608;2022-12-24T15:03:23;5.38;;;1.25;;
45540;SDS011;31265;49.680;8.608;2022-12-24T15:05:54;5.00;;;1.40;;
45540;SDS011;31265;49.680;8.608;2022-12-24T15:08:28;5.68;;;0.77;;
45540;SDS011;31265;49.680;8.608;2022-12-24T15:11:01;5.60;;;1.10;;
45540;SDS011;31265;49.680;8.608;2022-12-24T15:13:34;2.53;;;1.17;;
45540;SDS011;31265;49.680;8.608;2022-12-24T15:16:05;3.95;;;1.77;;
45540;SDS011;31265;49.680;8.608;2022-12-24T15:18:41;4.45;;;2.10;;
45540;SDS011;31265;49.680;8.608;2022-12-24T15:21:18;7.57;;;2.00;;
45540;SDS011;31265;49.680;8.608;2022-12-24T15:23:50;6.10;;;2.40;;
45540;SDS011;31265;49.680;8.608;2022-12-24T15:26:23;9.27;;;2.10;;
45540;SDS011;31265;49.680;8.608;2022-12-24T15:28:58;5.32;;;1.58;;
45540;SDS011;31265;49.680;8.608;2022-12-24T15:31:30;6.70;;;1.58;;
45540;SDS011;31265;49.680;8.608;2022-12-24T15:33:58;10.60;;;2.80;;
45540;SDS011;31265;49.680;8.608;2022-12-24T15:36:28;8.55;;;2.33;;
45540;SDS011;31265;49.680;8.608;2022-12-24T15:39:01;8.40;;;2.80;;
45540;SDS011;31265;49.680;8.608;2022-12-24T15:41:35;18.50;;;5.82;;
45540;SDS011;31265;49.680;8.608;2022-12-24T15:44:27;17.40;;;5.93;;
45540;SDS011;31265;49.680;8.608;2022-12-24T15:47:05;23.40;;;7.83;;
45540;SDS011;31265;49.680;8.608;2022-12-24T15:49:36;16.95;;;6.38;;
45540;SDS011;31265;49.680;8.608;2022-12-24T15:52:07;10.77;;;4.78;;
45540;SDS011;31265;49.680;8.608;2022-12-24T15:54:41;10.40;;;3.28;;
45540;SDS011;31265;49.680;8.608;2022-12-24T15:57:13;6.45;;;2.65;;
45540;SDS011;31265;49.680;8.608;2022-12-24T15:59:51;13.93;;;3.10;;
45540;SDS011;31265;49.680;8.608;2022-12-24T16:02:31;4.47;;;2.05;;
45540;SDS011;31265;49.680;8.608;2022-12-24T16:05:19;7.50;;;2.28;;
45540;SDS011;31265;49.680;8.608;2022-12-24T16:07:59;8.85;;;1.98;;